Simmons Army Air Field
KFBG : now visible

Aeroporto :











RITROVATECI SU...

 
LOGIN :

Iscrizione | Disclaimer

   EN    FR    IT 

 









Sommario :    VFR   VFR Marginale   IFR   IFR Intensivo   IFR Molto Intensivo
Visibilità : 
Base nubi : 
>= 8 km
>= 3000ft
5 / 8 km
1000 / 3000 ft
1500m / 5 km
500 / 1000 ft
800 / 1500m
200 / 500 ft
< 800m
< 200 ft
Simboli :   Temporali  Nebbia  Neve Forte  Precipitazioni Forti  Vento > 20 kt






- Altitudine del aeroporto : 244 ft


KFBG - Simmons Army Air Field

ULTIMO METAR :
  • 271956Z AUTO 30008KT 10SM CLR 22/11 A2998 RMK AO2 SLP154 T02230107

METARs OBSOLETI :
  • 271856Z AUTO 30007KT 10SM FEW036 23/12 A3000 RMK AO2 SLP160 T02260116
  • 271825Z AUTO 30009KT 10SM CLR 23/12 A3000 RMK AO2 SLP160
  • 271756Z AUTO 28006KT 10SM CLR 22/13 A3002 RMK AO2 SLP167 60000 T02170125 10217 20165 57015

TAF TAF KFBG
Valido dal 27 a 18 ore il 29 a 00 ore UTC


271800Z 2718/2824 VRB06KT 9999 SCT023 QNH3000INS
BECMG 2808/2809 VRB06KT 6000 BR BKN080 QNH3002INS
BECMG 2812/2813 34009KT 9999 NSW BKN090 QNH3000INS
BECMG 2816/2817 35006KT 9999 SKC QNH3008INS TX23/2720Z TN10/2809Z
FIR KZDC / America del Nord



MetMap, La meteo Aeronautica in un colpo d'occhio ! - Copyright ORBIFLY Dicembre 2007 - Disclaimer

ORBIFLY MET'MAP TEAM :

Programmazione e sviluppo : Alexandra Zaïnal
Concezione : Baudouin d'Aumeries
Aiuto per la programmazione : Marc-Olivier Méhu
Supporto tecnico e logistico : Manuel Goepfert
Aiuto per la traduzione : Arnaldo La Scala

Contatto : metmap@orbifly.com




FONTI E CREDITI :

   NOAA       Earth
Advisory